sensor_id;sensor_type;location;lat;lon;timestamp;temperature;humidity
37786;DHT22;23625;48.784;9.336;2022-08-01T00:01:44;23.00;67.20
37786;DHT22;23625;48.784;9.336;2022-08-01T00:04:09;23.00;67.20
37786;DHT22;23625;48.784;9.336;2022-08-01T00:06:35;23.00;67.30
37786;DHT22;23625;48.784;9.336;2022-08-01T00:09:00;22.90;67.60
37786;DHT22;23625;48.784;9.336;2022-08-01T00:11:26;22.90;67.90
37786;DHT22;23625;48.784;9.336;2022-08-01T00:13:52;22.80;68.40
37786;DHT22;23625;48.784;9.336;2022-08-01T00:16:18;22.90;68.40
37786;DHT22;23625;48.784;9.336;2022-08-01T00:18:44;22.80;68.00
37786;DHT22;23625;48.784;9.336;2022-08-01T00:21:10;22.80;69.20
37786;DHT22;23625;48.784;9.336;2022-08-01T00:23:35;22.70;69.60
37786;DHT22;23625;48.784;9.336;2022-08-01T00:26:01;22.70;70.70
37786;DHT22;23625;48.784;9.336;2022-08-01T00:28:27;22.60;71.20
37786;DHT22;23625;48.784;9.336;2022-08-01T00:30:53;22.80;70.50
37786;DHT22;23625;48.784;9.336;2022-08-01T00:33:18;22.80;70.40
37786;DHT22;23625;48.784;9.336;2022-08-01T00:35:44;22.80;70.30
37786;DHT22;23625;48.784;9.336;2022-08-01T00:38:09;22.80;70.70
37786;DHT22;23625;48.784;9.336;2022-08-01T00:40:36;22.80;71.10
37786;DHT22;23625;48.784;9.336;2022-08-01T00:43:02;22.70;72.00
37786;DHT22;23625;48.784;9.336;2022-08-01T00:45:28;22.60;72.80
37786;DHT22;23625;48.784;9.336;2022-08-01T00:47:54;22.50;73.40
37786;DHT22;23625;48.784;9.336;2022-08-01T00:50:19;22.50;73.90
37786;DHT22;23625;48.784;9.336;2022-08-01T00:52:45;22.50;73.90
37786;DHT22;23625;48.784;9.336;2022-08-01T00:55:12;22.50;74.50
37786;DHT22;23625;48.784;9.336;2022-08-01T00:57:39;22.50;75.00
37786;DHT22;23625;48.784;9.336;2022-08-01T01:00:06;22.50;74.70
37786;DHT22;23625;48.784;9.336;2022-08-01T01:02:32;22.50;75.60
37786;DHT22;23625;48.784;9.336;2022-08-01T01:04:58;22.50;75.50
37786;DHT22;23625;48.784;9.336;2022-08-01T01:08:44;22.60;74.70
37786;DHT22;23625;48.784;9.336;2022-08-01T01:10:56;22.60;75.50
37786;DHT22;23625;48.784;9.336;2022-08-01T01:13:42;22.60;76.50
37786;DHT22;23625;48.784;9.336;2022-08-01T01:16:15;22.50;77.60
37786;DHT22;23625;48.784;9.336;2022-08-01T01:18:49;22.40;78.50
37786;DHT22;23625;48.784;9.336;2022-08-01T01:31:52;22.50;81.80
37786;DHT22;23625;48.784;9.336;2022-08-01T01:34:21;22.50;83.20
37786;DHT22;23625;48.784;9.336;2022-08-01T01:36:48;22.40;83.90
37786;DHT22;23625;48.784;9.336;2022-08-01T01:39:15;22.20;85.40
37786;DHT22;23625;48.784;9.336;2022-08-01T01:41:43;22.10;87.00
37786;DHT22;23625;48.784;9.336;2022-08-01T01:44:10;22.10;88.50
37786;DHT22;23625;48.784;9.336;2022-08-01T01:46:36;22.00;90.20
37786;DHT22;23625;48.784;9.336;2022-08-01T01:49:03;21.90;90.50
37786;DHT22;23625;48.784;9.336;2022-08-01T01:51:31;21.90;91.00
37786;DHT22;23625;48.784;9.336;2022-08-01T01:53:58;21.90;91.50
37786;DHT22;23625;48.784;9.336;2022-08-01T01:56:25;21.80;91.80
37786;DHT22;23625;48.784;9.336;2022-08-01T01:58:56;21.80;91.80
37786;DHT22;23625;48.784;9.336;2022-08-01T02:01:25;21.80;92.50
37786;DHT22;23625;48.784;9.336;2022-08-01T02:03:52;21.80;92.60
37786;DHT22;23625;48.784;9.336;2022-08-01T02:06:20;21.80;92.70
37786;DHT22;23625;48.784;9.336;2022-08-01T02:08:46;21.80;93.10
37786;DHT22;23625;48.784;9.336;2022-08-01T02:11:13;21.70;93.60
37786;DHT22;23625;48.784;9.336;2022-08-01T02:13:55;21.70;93.90
37786;DHT22;23625;48.784;9.336;2022-08-01T02:16:26;21.60;94.60
37786;DHT22;23625;48.784;9.336;2022-08-01T02:18:53;21.60;94.90
37786;DHT22;23625;48.784;9.336;2022-08-01T02:21:25;21.50;95.70
37786;DHT22;23625;48.784;9.336;2022-08-01T02:23:54;21.50;96.00
37786;DHT22;23625;48.784;9.336;2022-08-01T02:26:22;21.50;96.50
37786;DHT22;23625;48.784;9.336;2022-08-01T02:28:54;21.40;96.80
37786;DHT22;23625;48.784;9.336;2022-08-01T02:31:22;21.50;96.80
37786;DHT22;23625;48.784;9.336;2022-08-01T02:33:59;21.40;97.10
37786;DHT22;23625;48.784;9.336;2022-08-01T02:36:28;21.30;97.60
37786;DHT22;23625;48.784;9.336;2022-08-01T02:38:56;21.30;98.20
37786;DHT22;23625;48.784;9.336;2022-08-01T02:41:23;21.30;98.30
37786;DHT22;23625;48.784;9.336;2022-08-01T02:43:52;21.30;98.50
37786;DHT22;23625;48.784;9.336;2022-08-01T02:46:26;21.30;98.30
37786;DHT22;23625;48.784;9.336;2022-08-01T02:48:56;21.20;98.80
37786;DHT22;23625;48.784;9.336;2022-08-01T02:51:24;21.20;99.00
37786;DHT22;23625;48.784;9.336;2022-08-01T02:53:52;21.30;98.60
37786;DHT22;23625;48.784;9.336;2022-08-01T02:56:19;21.20;99.00
37786;DHT22;23625;48.784;9.336;2022-08-01T02:58:47;21.20;99.40
37786;DHT22;23625;48.784;9.336;2022-08-01T03:01:15;21.20;99.60
37786;DHT22;23625;48.784;9.336;2022-08-01T03:03:43;21.10;99.90
37786;DHT22;23625;48.784;9.336;2022-08-01T03:06:10;21.10;99.90
37786;DHT22;23625;48.784;9.336;2022-08-01T03:08:37;21.00;99.90
37786;DHT22;23625;48.784;9.336;2022-08-01T03:11:05;21.00;99.90
37786;DHT22;23625;48.784;9.336;2022-08-01T03:13:32;20.90;99.90
37786;DHT22;23625;48.784;9.336;2022-08-01T03:15:59;20.90;99.90
37786;DHT22;23625;48.784;9.336;2022-08-01T03:18:26;20.90;99.90
37786;DHT22;23625;48.784;9.336;2022-08-01T03:20:54;20.80;99.90
37786;DHT22;23625;48.784;9.336;2022-08-01T03:23:21;20.80;99.90
37786;DHT22;23625;48.784;9.336;2022-08-01T03:25:49;20.70;99.90
37786;DHT22;23625;48.784;9.336;2022-08-01T03:28:16;20.70;99.90
37786;DHT22;23625;48.784;9.336;2022-08-01T03:30:42;20.50;99.90
37786;DHT22;23625;48.784;9.336;2022-08-01T03:33:09;20.40;99.90
37786;DHT22;23625;48.784;9.336;2022-08-01T03:35:39;20.40;99.90
37786;DHT22;23625;48.784;9.336;2022-08-01T03:38:08;20.30;99.90
37786;DHT22;23625;48.784;9.336;2022-08-01T03:40:40;20.20;99.90
37786;DHT22;23625;48.784;9.336;2022-08-01T03:43:15;20.10;99.90
37786;DHT22;23625;48.784;9.336;2022-08-01T03:45:44;20.00;99.90
37786;DHT22;23625;48.784;9.336;2022-08-01T03:48:15;19.90;99.90
37786;DHT22;23625;48.784;9.336;2022-08-01T03:50:45;20.00;99.90
37786;DHT22;23625;48.784;9.336;2022-08-01T03:53:13;20.00;99.90
37786;DHT22;23625;48.784;9.336;2022-08-01T03:55:41;20.00;99.90
37786;DHT22;23625;48.784;9.336;2022-08-01T03:58:09;20.00;99.90
37786;DHT22;23625;48.784;9.336;2022-08-01T04:00:36;19.90;99.90
37786;DHT22;23625;48.784;9.336;2022-08-01T04:03:04;19.80;99.90
37786;DHT22;23625;48.784;9.336;2022-08-01T04:05:30;19.80;99.90
37786;DHT22;23625;48.784;9.336;2022-08-01T04:07:56;19.70;99.90
37786;DHT22;23625;48.784;9.336;2022-08-01T04:10:23;19.70;99.90
37786;DHT22;23625;48.784;9.336;2022-08-01T04:12:49;19.60;99.90
37786;DHT22;23625;48.784;9.336;2022-08-01T04:15:15;19.60;99.90
37786;DHT22;23625;48.784;9.336;2022-08-01T04:17:41;19.70;99.90
37786;DHT22;23625;48.784;9.336;2022-08-01T04:20:07;19.70;99.90
37786;DHT22;23625;48.784;9.336;2022-08-01T04:22:33;19.80;99.90
37786;DHT22;23625;48.784;9.336;2022-08-01T04:25:00;19.80;99.90
37786;DHT22;23625;48.784;9.336;2022-08-01T04:27:36;19.90;99.90
37786;DHT22;23625;48.784;9.336;2022-08-01T04:30:03;20.10;99.90
37786;DHT22;23625;48.784;9.336;2022-08-01T04:32:33;20.20;99.90
37786;DHT22;23625;48.784;9.336;2022-08-01T04:35:03;20.20;99.90
37786;DHT22;23625;48.784;9.336;2022-08-01T04:37:30;20.30;99.90
37786;DHT22;23625;48.784;9.336;2022-08-01T04:39:57;20.40;99.90
37786;DHT22;23625;48.784;9.336;2022-08-01T04:42:23;20.40;99.90
37786;DHT22;23625;48.784;9.336;2022-08-01T04:44:49;20.50;99.90
37786;DHT22;23625;48.784;9.336;2022-08-01T04:47:15;20.50;99.90
37786;DHT22;23625;48.784;9.336;2022-08-01T04:49:41;20.50;99.90
37786;DHT22;23625;48.784;9.336;2022-08-01T04:52:08;20.40;99.90
37786;DHT22;23625;48.784;9.336;2022-08-01T04:54:34;20.50;99.90
37786;DHT22;23625;48.784;9.336;2022-08-01T04:57:04;20.50;99.90
37786;DHT22;23625;48.784;9.336;2022-08-01T04:59:32;20.60;99.90
37786;DHT22;23625;48.784;9.336;2022-08-01T05:02:15;20.70;99.90
37786;DHT22;23625;48.784;9.336;2022-08-01T05:04:42;20.70;99.90
37786;DHT22;23625;48.784;9.336;2022-08-01T05:07:08;20.60;99.90
37786;DHT22;23625;48.784;9.336;2022-08-01T05:09:35;20.70;99.90
37786;DHT22;23625;48.784;9.336;2022-08-01T05:12:02;20.80;99.90
37786;DHT22;23625;48.784;9.336;2022-08-01T05:14:29;20.90;99.90
37786;DHT22;23625;48.784;9.336;2022-08-01T05:17:01;21.00;99.90
37786;DHT22;23625;48.784;9.336;2022-08-01T05:19:29;21.10;99.90
37786;DHT22;23625;48.784;9.336;2022-08-01T05:21:55;21.20;99.90
37786;DHT22;23625;48.784;9.336;2022-08-01T05:24:21;21.30;99.90
37786;DHT22;23625;48.784;9.336;2022-08-01T05:26:48;21.30;99.90
37786;DHT22;23625;48.784;9.336;2022-08-01T05:29:15;21.30;99.90
37786;DHT22;23625;48.784;9.336;2022-08-01T05:31:40;21.20;99.90
37786;DHT22;23625;48.784;9.336;2022-08-01T05:34:06;21.20;99.90
37786;DHT22;23625;48.784;9.336;2022-08-01T05:36:32;21.20;99.90
37786;DHT22;23625;48.784;9.336;2022-08-01T05:38:57;21.30;99.90
37786;DHT22;23625;48.784;9.336;2022-08-01T05:41:23;21.30;99.90
37786;DHT22;23625;48.784;9.336;2022-08-01T05:43:49;21.40;99.90
37786;DHT22;23625;48.784;9.336;2022-08-01T05:46:14;21.50;99.90
37786;DHT22;23625;48.784;9.336;2022-08-01T05:48:40;21.50;99.90
37786;DHT22;23625;48.784;9.336;2022-08-01T05:51:06;21.50;99.90
37786;DHT22;23625;48.784;9.336;2022-08-01T05:53:31;21.50;99.90
37786;DHT22;23625;48.784;9.336;2022-08-01T05:56:00;21.50;99.90
37786;DHT22;23625;48.784;9.336;2022-08-01T05:58:26;21.70;99.90
37786;DHT22;23625;48.784;9.336;2022-08-01T06:00:51;21.80;99.90
37786;DHT22;23625;48.784;9.336;2022-08-01T06:03:18;21.90;99.90
37786;DHT22;23625;48.784;9.336;2022-08-01T06:05:44;22.00;99.90
37786;DHT22;23625;48.784;9.336;2022-08-01T06:08:10;22.10;99.90
37786;DHT22;23625;48.784;9.336;2022-08-01T06:10:35;22.20;99.90
37786;DHT22;23625;48.784;9.336;2022-08-01T06:13:01;22.20;99.90
37786;DHT22;23625;48.784;9.336;2022-08-01T06:15:29;22.30;99.90
37786;DHT22;23625;48.784;9.336;2022-08-01T06:17:55;22.40;99.90
37786;DHT22;23625;48.784;9.336;2022-08-01T06:20:21;22.40;99.90
37786;DHT22;23625;48.784;9.336;2022-08-01T06:22:46;22.60;99.90
37786;DHT22;23625;48.784;9.336;2022-08-01T06:25:12;22.70;99.90
37786;DHT22;23625;48.784;9.336;2022-08-01T06:27:38;22.70;99.90
37786;DHT22;23625;48.784;9.336;2022-08-01T06:30:06;22.80;99.90
37786;DHT22;23625;48.784;9.336;2022-08-01T06:32:33;22.90;99.90
37786;DHT22;23625;48.784;9.336;2022-08-01T06:34:59;22.90;99.90
37786;DHT22;23625;48.784;9.336;2022-08-01T06:37:29;23.00;99.90
37786;DHT22;23625;48.784;9.336;2022-08-01T06:39:55;23.10;99.90
37786;DHT22;23625;48.784;9.336;2022-08-01T06:42:20;23.20;99.90
37786;DHT22;23625;48.784;9.336;2022-08-01T06:44:46;23.40;99.60
37786;DHT22;23625;48.784;9.336;2022-08-01T06:47:12;23.40;99.30
37786;DHT22;23625;48.784;9.336;2022-08-01T06:49:37;23.40;98.80
37786;DHT22;23625;48.784;9.336;2022-08-01T06:52:03;23.40;99.00
37786;DHT22;23625;48.784;9.336;2022-08-01T06:54:29;23.40;99.50
37786;DHT22;23625;48.784;9.336;2022-08-01T06:56:55;23.50;99.70
37786;DHT22;23625;48.784;9.336;2022-08-01T06:59:20;23.50;97.90
37786;DHT22;23625;48.784;9.336;2022-08-01T07:01:46;23.50;98.30
37786;DHT22;23625;48.784;9.336;2022-08-01T07:04:11;23.50;98.40
37786;DHT22;23625;48.784;9.336;2022-08-01T07:06:37;23.50;98.20
37786;DHT22;23625;48.784;9.336;2022-08-01T07:09:02;23.60;98.60
37786;DHT22;23625;48.784;9.336;2022-08-01T07:11:29;23.70;98.40
37786;DHT22;23625;48.784;9.336;2022-08-01T07:13:54;23.80;98.20
37786;DHT22;23625;48.784;9.336;2022-08-01T07:16:20;23.70;97.50
37786;DHT22;23625;48.784;9.336;2022-08-01T07:18:45;23.80;98.50
37786;DHT22;23625;48.784;9.336;2022-08-01T07:21:11;23.90;97.60
37786;DHT22;23625;48.784;9.336;2022-08-01T07:23:37;23.90;97.30
37786;DHT22;23625;48.784;9.336;2022-08-01T07:26:03;24.00;97.50
37786;DHT22;23625;48.784;9.336;2022-08-01T07:28:29;24.20;98.10
37786;DHT22;23625;48.784;9.336;2022-08-01T07:30:55;24.30;95.90
37786;DHT22;23625;48.784;9.336;2022-08-01T07:33:21;24.40;95.90
37786;DHT22;23625;48.784;9.336;2022-08-01T07:35:47;24.50;95.00
37786;DHT22;23625;48.784;9.336;2022-08-01T07:38:13;24.50;94.70
37786;DHT22;23625;48.784;9.336;2022-08-01T07:40:44;24.50;94.70
37786;DHT22;23625;48.784;9.336;2022-08-01T07:43:10;24.50;95.10
37786;DHT22;23625;48.784;9.336;2022-08-01T07:45:36;24.60;93.90
37786;DHT22;23625;48.784;9.336;2022-08-01T07:48:03;24.70;93.20
37786;DHT22;23625;48.784;9.336;2022-08-01T07:50:29;24.70;92.90
37786;DHT22;23625;48.784;9.336;2022-08-01T07:52:55;24.80;92.90
37786;DHT22;23625;48.784;9.336;2022-08-01T07:55:21;24.70;92.80
37786;DHT22;23625;48.784;9.336;2022-08-01T07:57:46;24.70;92.60
37786;DHT22;23625;48.784;9.336;2022-08-01T08:00:12;24.80;92.60
37786;DHT22;23625;48.784;9.336;2022-08-01T08:02:38;24.80;91.80
37786;DHT22;23625;48.784;9.336;2022-08-01T08:05:04;24.90;91.60
37786;DHT22;23625;48.784;9.336;2022-08-01T08:07:31;25.10;91.20
37786;DHT22;23625;48.784;9.336;2022-08-01T08:09:57;25.30;92.30
37786;DHT22;23625;48.784;9.336;2022-08-01T08:12:23;25.40;87.60
37786;DHT22;23625;48.784;9.336;2022-08-01T08:14:49;25.30;90.60
37786;DHT22;23625;48.784;9.336;2022-08-01T08:17:14;25.20;89.90
37786;DHT22;23625;48.784;9.336;2022-08-01T08:19:40;25.00;91.10
37786;DHT22;23625;48.784;9.336;2022-08-01T08:22:07;25.10;91.60
37786;DHT22;23625;48.784;9.336;2022-08-01T08:24:33;25.10;91.70
37786;DHT22;23625;48.784;9.336;2022-08-01T08:27:00;25.10;90.60
37786;DHT22;23625;48.784;9.336;2022-08-01T08:29:28;25.20;91.00
37786;DHT22;23625;48.784;9.336;2022-08-01T08:31:56;25.30;88.50
37786;DHT22;23625;48.784;9.336;2022-08-01T08:34:22;25.50;89.20
37786;DHT22;23625;48.784;9.336;2022-08-01T08:36:51;25.70;86.80
37786;DHT22;23625;48.784;9.336;2022-08-01T08:39:17;25.90;84.90
37786;DHT22;23625;48.784;9.336;2022-08-01T08:41:43;26.00;81.80
37786;DHT22;23625;48.784;9.336;2022-08-01T08:44:09;25.90;80.30
37786;DHT22;23625;48.784;9.336;2022-08-01T08:46:42;25.90;81.60
37786;DHT22;23625;48.784;9.336;2022-08-01T08:49:09;25.90;81.40
37786;DHT22;23625;48.784;9.336;2022-08-01T08:51:38;26.20;78.30
37786;DHT22;23625;48.784;9.336;2022-08-01T08:54:05;26.20;80.70
37786;DHT22;23625;48.784;9.336;2022-08-01T08:56:31;26.40;78.90
37786;DHT22;23625;48.784;9.336;2022-08-01T08:59:01;26.50;77.70
37786;DHT22;23625;48.784;9.336;2022-08-01T09:01:26;26.60;75.20
37786;DHT22;23625;48.784;9.336;2022-08-01T09:03:53;26.70;76.00
37786;DHT22;23625;48.784;9.336;2022-08-01T09:06:19;26.60;77.30
37786;DHT22;23625;48.784;9.336;2022-08-01T09:08:45;26.60;78.50
37786;DHT22;23625;48.784;9.336;2022-08-01T09:11:11;26.70;74.40
37786;DHT22;23625;48.784;9.336;2022-08-01T09:13:36;26.40;75.30
37786;DHT22;23625;48.784;9.336;2022-08-01T09:16:02;26.30;77.80
37786;DHT22;23625;48.784;9.336;2022-08-01T09:18:37;26.50;78.50
37786;DHT22;23625;48.784;9.336;2022-08-01T09:23:51;26.70;79.00
37786;DHT22;23625;48.784;9.336;2022-08-01T09:28:57;27.20;72.70
37786;DHT22;23625;48.784;9.336;2022-08-01T09:31:22;27.50;73.70
37786;DHT22;23625;48.784;9.336;2022-08-01T09:33:56;27.60;69.10
37786;DHT22;23625;48.784;9.336;2022-08-01T09:36:27;27.40;67.10
37786;DHT22;23625;48.784;9.336;2022-08-01T09:39:12;27.60;69.80
37786;DHT22;23625;48.784;9.336;2022-08-01T09:41:39;27.80;67.50
37786;DHT22;23625;48.784;9.336;2022-08-01T09:44:04;27.70;68.00
37786;DHT22;23625;48.784;9.336;2022-08-01T09:46:30;27.40;68.10
37786;DHT22;23625;48.784;9.336;2022-08-01T09:49:03;27.20;70.60
37786;DHT22;23625;48.784;9.336;2022-08-01T09:53:55;27.10;70.20
37786;DHT22;23625;48.784;9.336;2022-08-01T09:56:22;26.80;71.80
37786;DHT22;23625;48.784;9.336;2022-08-01T09:58:58;26.70;73.00
37786;DHT22;23625;48.784;9.336;2022-08-01T10:01:24;26.30;74.10
37786;DHT22;23625;48.784;9.336;2022-08-01T10:04:11;26.20;75.70
37786;DHT22;23625;48.784;9.336;2022-08-01T10:06:37;26.40;78.20
37786;DHT22;23625;48.784;9.336;2022-08-01T10:09:03;27.00;78.50
37786;DHT22;23625;48.784;9.336;2022-08-01T10:11:29;27.20;73.20
37786;DHT22;23625;48.784;9.336;2022-08-01T10:13:59;27.20;69.40
37786;DHT22;23625;48.784;9.336;2022-08-01T10:16:26;27.10;68.10
37786;DHT22;23625;48.784;9.336;2022-08-01T10:18:53;27.00;70.00
37786;DHT22;23625;48.784;9.336;2022-08-01T10:21:20;27.50;69.70
37786;DHT22;23625;48.784;9.336;2022-08-01T10:23:46;27.90;68.70
37786;DHT22;23625;48.784;9.336;2022-08-01T10:26:12;28.10;67.50
37786;DHT22;23625;48.784;9.336;2022-08-01T10:28:39;28.30;66.30
37786;DHT22;23625;48.784;9.336;2022-08-01T10:31:07;28.20;66.10
37786;DHT22;23625;48.784;9.336;2022-08-01T10:33:33;27.80;65.50
37786;DHT22;23625;48.784;9.336;2022-08-01T10:36:01;27.50;67.10
37786;DHT22;23625;48.784;9.336;2022-08-01T10:38:27;27.40;67.40
37786;DHT22;23625;48.784;9.336;2022-08-01T10:40:54;27.70;69.90
37786;DHT22;23625;48.784;9.336;2022-08-01T10:43:21;27.80;65.60
37786;DHT22;23625;48.784;9.336;2022-08-01T10:45:46;27.90;63.50
37786;DHT22;23625;48.784;9.336;2022-08-01T10:48:29;27.80;63.00
37786;DHT22;23625;48.784;9.336;2022-08-01T10:51:00;27.70;63.90
37786;DHT22;23625;48.784;9.336;2022-08-01T10:53:27;27.80;64.00
37786;DHT22;23625;48.784;9.336;2022-08-01T11:03:58;27.80;64.70
37786;DHT22;23625;48.784;9.336;2022-08-01T11:06:54;27.90;63.60
37786;DHT22;23625;48.784;9.336;2022-08-01T11:09:30;28.00;64.20
37786;DHT22;23625;48.784;9.336;2022-08-01T11:14:29;27.80;62.60
37786;DHT22;23625;48.784;9.336;2022-08-01T11:16:55;27.50;63.30
37786;DHT22;23625;48.784;9.336;2022-08-01T11:19:21;27.30;63.80
37786;DHT22;23625;48.784;9.336;2022-08-01T11:24:56;27.20;64.70
37786;DHT22;23625;48.784;9.336;2022-08-01T11:27:31;27.30;64.40
37786;DHT22;23625;48.784;9.336;2022-08-01T11:32:51;27.70;61.80
37786;DHT22;23625;48.784;9.336;2022-08-01T11:35:18;27.80;62.60
37786;DHT22;23625;48.784;9.336;2022-08-01T11:37:46;28.00;62.30
37786;DHT22;23625;48.784;9.336;2022-08-01T11:40:21;28.50;60.50
37786;DHT22;23625;48.784;9.336;2022-08-01T11:48:19;29.20;56.90
37786;DHT22;23625;48.784;9.336;2022-08-01T11:50:45;28.90;57.20
37786;DHT22;23625;48.784;9.336;2022-08-01T11:53:11;28.50;57.30
37786;DHT22;23625;48.784;9.336;2022-08-01T11:55:52;28.40;57.70
37786;DHT22;23625;48.784;9.336;2022-08-01T11:58:23;28.30;58.30
37786;DHT22;23625;48.784;9.336;2022-08-01T12:00:52;28.60;59.50
37786;DHT22;23625;48.784;9.336;2022-08-01T12:03:25;29.20;57.90
37786;DHT22;23625;48.784;9.336;2022-08-01T12:05:53;29.20;55.50
37786;DHT22;23625;48.784;9.336;2022-08-01T12:08:30;29.00;56.60
37786;DHT22;23625;48.784;9.336;2022-08-01T12:10:58;28.80;56.20
37786;DHT22;23625;48.784;9.336;2022-08-01T12:13:25;28.70;57.60
37786;DHT22;23625;48.784;9.336;2022-08-01T12:15:50;28.50;58.10
37786;DHT22;23625;48.784;9.336;2022-08-01T12:18:16;28.30;58.60
37786;DHT22;23625;48.784;9.336;2022-08-01T12:20:44;28.10;59.90
37786;DHT22;23625;48.784;9.336;2022-08-01T12:23:13;28.20;60.40
37786;DHT22;23625;48.784;9.336;2022-08-01T12:25:39;28.30;59.80
37786;DHT22;23625;48.784;9.336;2022-08-01T12:28:07;28.20;59.30
37786;DHT22;23625;48.784;9.336;2022-08-01T12:30:35;28.10;59.60
37786;DHT22;23625;48.784;9.336;2022-08-01T12:33:06;28.10;60.00
37786;DHT22;23625;48.784;9.336;2022-08-01T12:35:32;28.10;59.50
37786;DHT22;23625;48.784;9.336;2022-08-01T12:38:07;28.10;59.50
37786;DHT22;23625;48.784;9.336;2022-08-01T12:40:40;28.40;59.40
37786;DHT22;23625;48.784;9.336;2022-08-01T12:43:07;28.80;57.70
37786;DHT22;23625;48.784;9.336;2022-08-01T12:48:00;29.20;57.10
37786;DHT22;23625;48.784;9.336;2022-08-01T12:50:29;29.20;56.00
37786;DHT22;23625;48.784;9.336;2022-08-01T12:52:55;29.10;55.40
37786;DHT22;23625;48.784;9.336;2022-08-01T12:55:23;28.80;55.50
37786;DHT22;23625;48.784;9.336;2022-08-01T12:58:18;28.80;55.60
37786;DHT22;23625;48.784;9.336;2022-08-01T13:00:46;28.30;57.30
37786;DHT22;23625;48.784;9.336;2022-08-01T13:03:17;28.00;59.00
37786;DHT22;23625;48.784;9.336;2022-08-01T13:05:54;27.90;59.40
37786;DHT22;23625;48.784;9.336;2022-08-01T13:11:00;28.10;58.80
37786;DHT22;23625;48.784;9.336;2022-08-01T13:13:49;28.50;59.60
37786;DHT22;23625;48.784;9.336;2022-08-01T13:16:17;29.20;59.10
37786;DHT22;23625;48.784;9.336;2022-08-01T13:18:49;29.50;57.30
37786;DHT22;23625;48.784;9.336;2022-08-01T13:21:26;29.70;56.40
37786;DHT22;23625;48.784;9.336;2022-08-01T13:24:03;29.60;55.70
37786;DHT22;23625;48.784;9.336;2022-08-01T13:26:52;29.40;56.30
37786;DHT22;23625;48.784;9.336;2022-08-01T13:29:43;29.30;55.50
37786;DHT22;23625;48.784;9.336;2022-08-01T13:32:22;29.40;56.40
37786;DHT22;23625;48.784;9.336;2022-08-01T13:34:48;29.80;56.20
37786;DHT22;23625;48.784;9.336;2022-08-01T13:37:13;30.10;55.10
37786;DHT22;23625;48.784;9.336;2022-08-01T13:39:43;30.60;54.20
37786;DHT22;23625;48.784;9.336;2022-08-01T13:42:11;31.20;54.30
37786;DHT22;23625;48.784;9.336;2022-08-01T13:44:37;31.40;52.00
37786;DHT22;23625;48.784;9.336;2022-08-01T13:47:04;31.20;51.70
37786;DHT22;23625;48.784;9.336;2022-08-01T13:49:30;30.80;52.10
37786;DHT22;23625;48.784;9.336;2022-08-01T13:51:56;30.70;52.50
37786;DHT22;23625;48.784;9.336;2022-08-01T13:54:21;30.70;52.40
37786;DHT22;23625;48.784;9.336;2022-08-01T13:56:49;30.30;52.10
37786;DHT22;23625;48.784;9.336;2022-08-01T13:59:14;30.10;53.20
37786;DHT22;23625;48.784;9.336;2022-08-01T14:01:40;30.10;53.30
37786;DHT22;23625;48.784;9.336;2022-08-01T14:04:05;29.80;53.00
37786;DHT22;23625;48.784;9.336;2022-08-01T14:06:32;29.50;54.80
37786;DHT22;23625;48.784;9.336;2022-08-01T14:08:58;29.40;54.40
37786;DHT22;23625;48.784;9.336;2022-08-01T14:11:23;29.40;55.10
37786;DHT22;23625;48.784;9.336;2022-08-01T14:13:49;29.50;54.00
37786;DHT22;23625;48.784;9.336;2022-08-01T14:16:16;29.40;54.40
37786;DHT22;23625;48.784;9.336;2022-08-01T14:18:41;29.40;55.50
37786;DHT22;23625;48.784;9.336;2022-08-01T14:21:07;29.30;54.80
37786;DHT22;23625;48.784;9.336;2022-08-01T14:23:32;29.40;55.10
37786;DHT22;23625;48.784;9.336;2022-08-01T14:25:58;29.60;55.40
37786;DHT22;23625;48.784;9.336;2022-08-01T14:28:24;29.50;55.30
37786;DHT22;23625;48.784;9.336;2022-08-01T14:30:50;29.40;55.40
37786;DHT22;23625;48.784;9.336;2022-08-01T14:33:16;29.60;55.20
37786;DHT22;23625;48.784;9.336;2022-08-01T14:35:42;29.40;55.00
37786;DHT22;23625;48.784;9.336;2022-08-01T14:38:07;29.50;55.40
37786;DHT22;23625;48.784;9.336;2022-08-01T14:40:34;29.50;55.50
37786;DHT22;23625;48.784;9.336;2022-08-01T14:43:00;29.60;55.70
37786;DHT22;23625;48.784;9.336;2022-08-01T14:45:27;29.50;55.30
37786;DHT22;23625;48.784;9.336;2022-08-01T14:47:53;29.30;55.50
37786;DHT22;23625;48.784;9.336;2022-08-01T14:50:18;29.30;55.80
37786;DHT22;23625;48.784;9.336;2022-08-01T14:52:44;29.10;56.80
37786;DHT22;23625;48.784;9.336;2022-08-01T14:55:11;29.30;56.80
37786;DHT22;23625;48.784;9.336;2022-08-01T14:57:38;29.30;56.70
37786;DHT22;23625;48.784;9.336;2022-08-01T15:00:07;29.40;56.50
37786;DHT22;23625;48.784;9.336;2022-08-01T15:02:33;29.50;56.40
37786;DHT22;23625;48.784;9.336;2022-08-01T15:04:58;29.50;56.00
37786;DHT22;23625;48.784;9.336;2022-08-01T15:07:24;29.40;56.20
37786;DHT22;23625;48.784;9.336;2022-08-01T15:09:50;29.50;56.20
37786;DHT22;23625;48.784;9.336;2022-08-01T15:12:15;29.70;56.70
37786;DHT22;23625;48.784;9.336;2022-08-01T15:14:41;29.70;56.00
37786;DHT22;23625;48.784;9.336;2022-08-01T15:17:13;29.80;55.90
37786;DHT22;23625;48.784;9.336;2022-08-01T15:19:39;29.90;55.50
37786;DHT22;23625;48.784;9.336;2022-08-01T15:22:05;29.90;55.30
37786;DHT22;23625;48.784;9.336;2022-08-01T15:24:31;30.00;55.50
37786;DHT22;23625;48.784;9.336;2022-08-01T15:26:57;30.20;54.70
37786;DHT22;23625;48.784;9.336;2022-08-01T15:29:22;30.30;53.70
37786;DHT22;23625;48.784;9.336;2022-08-01T15:31:48;30.20;53.20
37786;DHT22;23625;48.784;9.336;2022-08-01T15:34:14;29.90;53.90
37786;DHT22;23625;48.784;9.336;2022-08-01T15:36:40;29.80;53.60
37786;DHT22;23625;48.784;9.336;2022-08-01T15:39:08;29.70;53.60
37786;DHT22;23625;48.784;9.336;2022-08-01T15:41:34;29.50;54.10
37786;DHT22;23625;48.784;9.336;2022-08-01T15:43:59;29.40;54.80
37786;DHT22;23625;48.784;9.336;2022-08-01T15:46:25;29.30;55.60
37786;DHT22;23625;48.784;9.336;2022-08-01T15:48:50;29.30;54.20
37786;DHT22;23625;48.784;9.336;2022-08-01T15:51:16;29.40;54.60
37786;DHT22;23625;48.784;9.336;2022-08-01T15:53:42;29.40;54.10
37786;DHT22;23625;48.784;9.336;2022-08-01T15:56:07;29.30;54.00
37786;DHT22;23625;48.784;9.336;2022-08-01T15:58:33;29.30;54.60
37786;DHT22;23625;48.784;9.336;2022-08-01T16:00:59;29.30;54.90
37786;DHT22;23625;48.784;9.336;2022-08-01T16:03:24;29.30;54.60
37786;DHT22;23625;48.784;9.336;2022-08-01T16:05:52;29.40;54.90
37786;DHT22;23625;48.784;9.336;2022-08-01T16:08:17;29.30;54.30
37786;DHT22;23625;48.784;9.336;2022-08-01T16:10:43;29.10;54.30
37786;DHT22;23625;48.784;9.336;2022-08-01T16:13:09;28.90;55.70
37786;DHT22;23625;48.784;9.336;2022-08-01T16:15:35;28.90;55.00
37786;DHT22;23625;48.784;9.336;2022-08-01T16:18:02;29.00;55.00
37786;DHT22;23625;48.784;9.336;2022-08-01T16:20:27;28.80;55.20